createdAt,value
2023-08-30T00:00:01.128Z,14.7
2023-08-30T00:01:01.165Z,14.7
2023-08-30T00:02:01.351Z,14.7
2023-08-30T00:03:02.542Z,14.7
2023-08-30T00:04:02.090Z,14.7
2023-08-30T00:05:01.864Z,14.7
2023-08-30T00:06:01.748Z,14.8
2023-08-30T00:07:01.070Z,14.8
2023-08-30T00:08:01.282Z,14.7
2023-08-30T00:09:01.173Z,14.8
2023-08-30T00:10:01.877Z,14.7
2023-08-30T00:11:03.528Z,14.8
2023-08-30T00:12:02.098Z,14.8
2023-08-30T00:13:01.201Z,14.8
2023-08-30T00:14:01.415Z,14.8
2023-08-30T00:15:01.095Z,14.8
2023-08-30T00:16:05.750Z,14.8
2023-08-30T00:17:01.371Z,14.8
2023-08-30T00:18:02.162Z,14.8
2023-08-30T00:19:02.382Z,14.8
2023-08-30T00:20:01.411Z,14.8
2023-08-30T00:21:08.564Z,14.8
2023-08-30T00:22:01.394Z,14.8
2023-08-30T00:23:01.207Z,14.8
2023-08-30T00:24:01.081Z,14.8
2023-08-30T00:25:01.072Z,14.8
2023-08-30T00:26:10.184Z,14.8
2023-08-30T00:27:01.999Z,14.8
2023-08-30T00:28:01.399Z,14.8
2023-08-30T00:29:01.413Z,14.8
2023-08-30T00:30:02.200Z,14.8
2023-08-30T00:31:13.775Z,14.8
2023-08-30T00:32:02.546Z,14.9
2023-08-30T00:33:01.811Z,14.9
2023-08-30T00:34:01.126Z,14.9
2023-08-30T00:35:01.155Z,14.9
2023-08-30T00:36:15.883Z,14.9
2023-08-30T00:37:01.412Z,14.9
2023-08-30T00:38:01.246Z,14.9
2023-08-30T00:39:00.943Z,14.9
2023-08-30T00:40:01.086Z,14.9
2023-08-30T00:41:00.766Z,14.9
2023-08-30T00:42:00.295Z,14.9
2023-08-30T00:42:59.953Z,14.9
2023-08-30T00:44:00.035Z,14.9
2023-08-30T00:44:59.664Z,14.8
2023-08-30T00:46:01.306Z,14.8
2023-08-30T00:47:02.162Z,14.8
2023-08-30T00:48:02.084Z,14.8
2023-08-30T00:49:01.131Z,14.8
2023-08-30T00:50:01.120Z,14.8
2023-08-30T00:51:01.022Z,14.8
2023-08-30T00:52:01.041Z,14.8
2023-08-30T00:53:01.089Z,14.7
2023-08-30T00:54:01.558Z,14.8
2023-08-30T00:55:01.099Z,14.8
2023-08-30T00:56:01.243Z,14.8
2023-08-30T00:57:01.206Z,14.8
2023-08-30T00:58:01.103Z,14.8
2023-08-30T00:59:01.089Z,14.8
2023-08-30T01:00:01.087Z,14.8
2023-08-30T01:01:01.139Z,14.8
2023-08-30T01:02:01.535Z,14.8
2023-08-30T01:03:01.920Z,14.8
2023-08-30T01:04:01.179Z,14.8
2023-08-30T01:05:01.057Z,14.8
2023-08-30T01:06:01.370Z,14.8
2023-08-30T01:07:01.128Z,14.8
2023-08-30T01:08:01.048Z,14.8
2023-08-30T01:09:01.323Z,14.8
2023-08-30T01:10:01.364Z,14.8
2023-08-30T01:11:01.376Z,14.8
2023-08-30T01:12:04.023Z,14.8
2023-08-30T01:13:01.205Z,14.8
2023-08-30T01:14:01.041Z,14.8
2023-08-30T01:15:00.763Z,14.8
2023-08-30T01:16:00.657Z,14.8
2023-08-30T01:17:00.382Z,14.8
2023-08-30T01:18:00.243Z,14.8
2023-08-30T01:19:00.022Z,14.8
2023-08-30T01:19:59.679Z,14.8
2023-08-30T01:21:01.329Z,14.8
2023-08-30T01:22:01.941Z,14.8
2023-08-30T01:23:02.483Z,14.8
2023-08-30T01:24:01.055Z,14.8
2023-08-30T01:25:01.520Z,14.8
2023-08-30T01:26:02.205Z,14.8
2023-08-30T01:27:01.064Z,14.8
2023-08-30T01:28:01.053Z,14.8
2023-08-30T01:29:01.097Z,14.8
2023-08-30T01:30:01.077Z,14.8
2023-08-30T01:31:01.102Z,14.8
2023-08-30T01:32:01.111Z,14.8
2023-08-30T01:33:01.269Z,14.8
2023-08-30T01:34:01.279Z,14.8
2023-08-30T01:35:02.297Z,14.8
2023-08-30T01:36:01.333Z,14.8
2023-08-30T01:37:01.126Z,14.8
2023-08-30T01:38:01.141Z,14.8
2023-08-30T01:39:01.078Z,14.8
2023-08-30T01:40:01.173Z,14.8
2023-08-30T01:41:01.114Z,14.8
2023-08-30T01:42:03.901Z,14.8
2023-08-30T01:43:04.007Z,14.8
2023-08-30T01:44:00.686Z,14.9
2023-08-30T01:45:00.711Z,14.8
2023-08-30T01:46:00.447Z,14.8
2023-08-30T01:47:00.028Z,14.8
2023-08-30T01:47:59.693Z,14.8
2023-08-30T01:49:01.492Z,14.8
2023-08-30T01:50:02.559Z,14.8
2023-08-30T01:51:02.068Z,14.8
2023-08-30T01:52:03.206Z,14.8
2023-08-30T01:53:01.108Z,14.8
2023-08-30T01:54:01.453Z,14.8
2023-08-30T01:55:01.087Z,14.8
2023-08-30T01:56:01.280Z,14.8
2023-08-30T01:57:05.587Z,14.8
2023-08-30T01:58:01.470Z,14.8
2023-08-30T01:59:01.263Z,14.8
2023-08-30T02:00:01.890Z,14.8
2023-08-30T02:01:02.884Z,14.8
2023-08-30T02:02:09.045Z,14.8
2023-08-30T02:03:01.161Z,14.8
2023-08-30T02:04:01.098Z,14.8
2023-08-30T02:05:01.196Z,14.8
2023-08-30T02:06:01.096Z,14.8
2023-08-30T02:07:11.357Z,14.8
2023-08-30T02:08:01.225Z,14.8
2023-08-30T02:09:01.174Z,14.8
2023-08-30T02:10:01.079Z,14.8
2023-08-30T02:11:01.306Z,14.8
2023-08-30T02:12:13.387Z,14.8
2023-08-30T02:13:02.605Z,14.8
2023-08-30T02:14:01.977Z,14.8
2023-08-30T02:15:01.757Z,14.8
2023-08-30T02:16:01.126Z,14.8
2023-08-30T02:17:16.564Z,14.8
2023-08-30T02:18:01.216Z,14.8
2023-08-30T02:19:01.900Z,14.8
2023-08-30T02:20:02.010Z,14.8
2023-08-30T02:21:01.206Z,14.8
2023-08-30T02:22:01.104Z,14.8
2023-08-30T02:23:08.733Z,14.8
2023-08-30T02:24:01.149Z,14.8
2023-08-30T02:25:01.210Z,14.8
2023-08-30T02:26:01.161Z,14.8
2023-08-30T02:27:00.757Z,14.8
2023-08-30T02:28:00.745Z,14.8
2023-08-30T02:29:00.325Z,14.8
2023-08-30T02:29:59.865Z,14.8
2023-08-30T02:31:02.712Z,14.8
2023-08-30T02:32:01.039Z,14.8
2023-08-30T02:33:01.109Z,14.8
2023-08-30T02:34:01.100Z,14.8
2023-08-30T02:35:00.725Z,14.8
2023-08-30T02:36:00.500Z,14.8
2023-08-30T02:37:00.096Z,14.8
2023-08-30T02:37:59.655Z,14.8
2023-08-30T02:39:01.633Z,14.8
2023-08-30T02:40:01.349Z,14.8
2023-08-30T02:41:02.576Z,14.8
2023-08-30T02:42:01.223Z,14.8
2023-08-30T02:43:01.850Z,14.8
2023-08-30T02:44:01.881Z,14.8
2023-08-30T02:45:01.461Z,14.8
2023-08-30T02:46:02.225Z,14.8
2023-08-30T02:47:01.245Z,14.8
2023-08-30T02:48:01.924Z,14.8
2023-08-30T02:49:01.097Z,14.8
2023-08-30T02:50:01.286Z,14.8
2023-08-30T02:51:01.103Z,14.8
2023-08-30T02:52:01.091Z,14.8
2023-08-30T02:53:01.112Z,14.8
2023-08-30T02:54:01.118Z,14.8
2023-08-30T02:55:01.533Z,14.8
2023-08-30T02:56:01.123Z,14.8
2023-08-30T02:57:01.123Z,14.8
2023-08-30T02:58:01.329Z,14.8
2023-08-30T02:59:01.048Z,14.8
2023-08-30T03:00:01.063Z,14.8
2023-08-30T03:01:01.075Z,14.8
2023-08-30T03:02:01.106Z,14.8
2023-08-30T03:03:01.146Z,14.8
2023-08-30T03:04:01.080Z,14.8
2023-08-30T03:05:01.219Z,14.7
2023-08-30T03:06:01.461Z,14.7
2023-08-30T03:07:01.900Z,14.8
2023-08-30T03:08:01.295Z,14.7
2023-08-30T03:09:00.928Z,14.8
2023-08-30T03:10:01.121Z,14.8
2023-08-30T03:11:01.131Z,14.7
2023-08-30T03:12:01.116Z,14.7
2023-08-30T03:13:01.141Z,14.7
2023-08-30T03:14:01.075Z,14.8
2023-08-30T03:15:01.203Z,14.7
2023-08-30T03:16:01.458Z,14.8
2023-08-30T03:17:00.536Z,14.7
2023-08-30T03:18:00.143Z,14.7
2023-08-30T03:18:59.870Z,14.8
2023-08-30T03:20:01.770Z,14.7
2023-08-30T03:21:01.809Z,14.7
2023-08-30T03:22:01.076Z,14.8
2023-08-30T03:23:03.988Z,14.7
2023-08-30T03:24:01.372Z,14.7
2023-08-30T03:25:03.754Z,14.7
2023-08-30T03:26:01.801Z,14.7
2023-08-30T03:27:01.124Z,14.7
2023-08-30T03:28:01.346Z,14.7
2023-08-30T03:29:01.210Z,14.7
2023-08-30T03:30:02.377Z,14.7
2023-08-30T03:31:01.082Z,14.7
2023-08-30T03:32:01.068Z,14.7
2023-08-30T03:33:01.471Z,14.7
2023-08-30T03:34:01.173Z,14.7
2023-08-30T03:35:01.176Z,14.7
2023-08-30T03:36:00.857Z,14.6
2023-08-30T03:37:01.103Z,14.6
2023-08-30T03:38:01.090Z,14.6
2023-08-30T03:39:01.243Z,14.6
2023-08-30T03:40:01.204Z,14.7
2023-08-30T03:41:01.275Z,14.6
2023-08-30T03:42:01.466Z,14.6
2023-08-30T03:43:02.004Z,14.6
2023-08-30T03:44:02.508Z,14.6
2023-08-30T03:45:01.052Z,14.6
2023-08-30T03:46:01.057Z,14.6
2023-08-30T03:47:01.054Z,14.6
2023-08-30T03:48:05.199Z,14.6
2023-08-30T03:49:01.039Z,14.6
2023-08-30T03:50:01.426Z,14.6
2023-08-30T03:51:01.803Z,14.6
2023-08-30T03:52:01.104Z,14.6
2023-08-30T03:53:07.873Z,14.6
2023-08-30T03:54:02.033Z,14.6
2023-08-30T03:55:01.123Z,14.6
2023-08-30T03:56:00.810Z,14.6
2023-08-30T03:57:01.027Z,14.6
2023-08-30T03:58:10.037Z,14.6
2023-08-30T03:59:01.132Z,14.6
2023-08-30T04:00:01.463Z,14.6
2023-08-30T04:01:01.865Z,14.6
2023-08-30T04:02:01.037Z,14.6
2023-08-30T04:03:11.753Z,14.6
2023-08-30T04:04:01.128Z,14.6
2023-08-30T04:05:01.338Z,14.6
2023-08-30T04:06:01.101Z,14.6
2023-08-30T04:07:01.063Z,14.6
2023-08-30T04:08:14.481Z,14.6
2023-08-30T04:09:01.100Z,14.6
2023-08-30T04:10:01.134Z,14.6
2023-08-30T04:11:01.105Z,14.6
2023-08-30T04:12:01.377Z,14.6
2023-08-30T04:13:16.757Z,14.6
2023-08-30T04:14:03.151Z,14.6
2023-08-30T04:15:02.655Z,14.6
2023-08-30T04:16:01.147Z,14.6
2023-08-30T04:17:00.938Z,14.7
2023-08-30T04:18:01.089Z,14.7
2023-08-30T04:19:01.149Z,14.7
2023-08-30T04:20:03.287Z,14.7
2023-08-30T04:21:01.997Z,14.7
2023-08-30T04:22:00.861Z,14.7
2023-08-30T04:23:01.072Z,14.7
2023-08-30T04:24:00.889Z,14.6
2023-08-30T04:25:00.568Z,14.6
2023-08-30T04:26:00.277Z,14.6
2023-08-30T04:26:59.881Z,14.7
2023-08-30T04:27:59.582Z,14.6
2023-08-30T04:29:01.823Z,14.6
2023-08-30T04:30:02.436Z,14.6
2023-08-30T04:31:01.862Z,14.6
2023-08-30T04:32:01.530Z,14.6
2023-08-30T04:33:01.243Z,14.6
2023-08-30T04:34:00.950Z,14.6
2023-08-30T04:35:01.067Z,14.6
2023-08-30T04:36:01.047Z,14.7
2023-08-30T04:37:01.677Z,14.7
2023-08-30T04:38:01.262Z,14.7
2023-08-30T04:39:03.480Z,14.7
2023-08-30T04:40:02.140Z,14.7
2023-08-30T04:41:01.864Z,14.8
2023-08-30T04:42:01.283Z,14.8
2023-08-30T04:43:01.136Z,14.8
2023-08-30T04:44:01.112Z,14.8
2023-08-30T04:45:01.121Z,14.8
2023-08-30T04:46:01.552Z,14.8
2023-08-30T04:47:01.512Z,14.8
2023-08-30T04:48:01.290Z,14.8
2023-08-30T04:49:01.098Z,14.8
2023-08-30T04:50:00.765Z,14.8
2023-08-30T04:51:00.430Z,14.8
2023-08-30T04:52:00.025Z,14.8
2023-08-30T04:52:59.751Z,14.8
2023-08-30T04:54:01.594Z,14.8
2023-08-30T04:55:01.483Z,14.8
2023-08-30T04:56:02.165Z,14.8
2023-08-30T04:57:01.109Z,14.8
2023-08-30T04:58:01.007Z,14.8
2023-08-30T04:59:01.101Z,14.8
2023-08-30T05:00:01.344Z,14.8
2023-08-30T05:01:01.594Z,14.8
2023-08-30T05:02:02.089Z,14.8
2023-08-30T05:03:01.288Z,14.8
2023-08-30T05:04:00.666Z,14.8
2023-08-30T05:05:00.328Z,14.8
2023-08-30T05:06:00.222Z,14.8
2023-08-30T05:06:59.807Z,14.8
2023-08-30T05:08:01.524Z,14.8
2023-08-30T05:09:01.139Z,14.8
2023-08-30T05:10:03.848Z,14.8
2023-08-30T05:11:05.447Z,14.8
2023-08-30T05:12:01.200Z,14.8
2023-08-30T05:13:01.618Z,14.8
2023-08-30T05:14:01.109Z,14.8
2023-08-30T05:15:01.539Z,14.8
2023-08-30T05:16:01.223Z,14.8
2023-08-30T05:17:01.646Z,14.8
2023-08-30T05:18:04.017Z,14.8
2023-08-30T05:19:01.236Z,14.8
2023-08-30T05:20:01.032Z,14.8
2023-08-30T05:21:01.034Z,14.8
2023-08-30T05:22:01.845Z,14.8
2023-08-30T05:23:02.162Z,14.8
2023-08-30T05:24:04.713Z,14.8
2023-08-30T05:25:01.062Z,14.8
2023-08-30T05:26:01.103Z,14.8
2023-08-30T05:27:01.088Z,14.8
2023-08-30T05:28:01.366Z,14.8
2023-08-30T05:29:04.135Z,14.8
2023-08-30T05:30:01.494Z,14.8
2023-08-30T05:31:03.572Z,14.8
2023-08-30T05:32:02.029Z,14.8
2023-08-30T05:33:19.229Z,14.8
2023-08-30T05:34:06.384Z,14.8
2023-08-30T05:35:02.052Z,14.8
2023-08-30T05:36:01.038Z,14.8
2023-08-30T05:37:01.793Z,14.8
2023-08-30T05:38:01.734Z,14.8
2023-08-30T05:39:09.932Z,14.8
2023-08-30T05:40:01.897Z,14.8
2023-08-30T05:41:01.130Z,14.8
2023-08-30T05:42:01.638Z,14.8
2023-08-30T05:43:01.547Z,14.8
2023-08-30T05:44:13.360Z,14.8
2023-08-30T05:45:01.295Z,14.8
2023-08-30T05:46:01.213Z,14.8
2023-08-30T05:47:01.918Z,14.8
2023-08-30T05:48:03.015Z,14.9
2023-08-30T05:49:16.141Z,14.9
2023-08-30T05:50:01.549Z,14.9
2023-08-30T05:51:01.158Z,14.9
2023-08-30T05:52:03.669Z,14.9
2023-08-30T05:53:04.694Z,14.9
2023-08-30T05:54:01.862Z,14.9
2023-08-30T05:55:01.291Z,14.9
2023-08-30T05:56:01.981Z,15
2023-08-30T05:57:01.073Z,15
2023-08-30T05:58:01.038Z,15
2023-08-30T05:59:01.342Z,15
2023-08-30T06:00:01.083Z,15
2023-08-30T06:01:03.161Z,15
2023-08-30T06:02:00.753Z,15
2023-08-30T06:03:00.509Z,14.9
2023-08-30T06:04:00.172Z,14.9
2023-08-30T06:05:00.033Z,14.9
2023-08-30T06:05:59.640Z,15
2023-08-30T06:07:01.571Z,15
2023-08-30T06:08:01.181Z,14.9
2023-08-30T06:09:03.878Z,14.9
2023-08-30T06:10:01.069Z,14.9
2023-08-30T06:11:01.437Z,15
2023-08-30T06:12:01.217Z,15
2023-08-30T06:13:02.202Z,15
2023-08-30T06:14:01.102Z,15
2023-08-30T06:15:01.795Z,15
2023-08-30T06:16:01.431Z,15
2023-08-30T06:17:01.096Z,15.1
2023-08-30T06:18:00.810Z,15.1
2023-08-30T06:19:01.127Z,15.1
2023-08-30T06:20:01.037Z,15.1
2023-08-30T06:21:01.122Z,15.1
2023-08-30T06:22:01.526Z,15.1
2023-08-30T06:23:02.099Z,15.1
2023-08-30T06:24:01.819Z,15.1
2023-08-30T06:25:01.055Z,15.1
2023-08-30T06:26:00.670Z,15.1
2023-08-30T06:27:00.363Z,15.1
2023-08-30T06:28:00.364Z,15.1
2023-08-30T06:29:04.959Z,15.1
2023-08-30T06:30:01.081Z,15.2
2023-08-30T06:31:01.533Z,15.2
2023-08-30T06:31:59.983Z,15.2
2023-08-30T06:32:59.641Z,15.3
2023-08-30T06:34:01.321Z,15.3
2023-08-30T06:35:02.047Z,15.3
2023-08-30T06:36:02.365Z,15.4
2023-08-30T06:37:02.618Z,15.5
2023-08-30T06:38:00.836Z,15.5
2023-08-30T06:39:00.386Z,15.5
2023-08-30T06:40:00.000Z,15.6
2023-08-30T06:40:59.611Z,15.6
2023-08-30T06:42:01.403Z,15.7
2023-08-30T06:43:01.201Z,15.7
2023-08-30T06:44:01.827Z,15.8
2023-08-30T06:45:01.083Z,15.8
2023-08-30T06:46:01.346Z,15.8
2023-08-30T06:47:02.455Z,15.8
2023-08-30T06:48:02.258Z,15.9
2023-08-30T06:49:01.906Z,15.9
2023-08-30T06:50:02.850Z,15.9
2023-08-30T06:51:01.116Z,15.8
2023-08-30T06:52:01.541Z,15.8
2023-08-30T06:53:00.822Z,15.8
2023-08-30T06:54:00.458Z,15.8
2023-08-30T06:55:00.136Z,15.8
2023-08-30T06:55:59.798Z,15.8
2023-08-30T06:57:01.732Z,15.8
2023-08-30T06:58:01.044Z,15.7
2023-08-30T06:59:01.256Z,15.7
2023-08-30T07:00:00.926Z,15.7
2023-08-30T07:01:01.183Z,15.7
2023-08-30T07:02:00.047Z,15.7
2023-08-30T07:02:59.636Z,15.7
2023-08-30T07:04:01.300Z,15.7
2023-08-30T07:05:03.992Z,15.8
2023-08-30T07:06:01.108Z,15.8
2023-08-30T07:07:01.034Z,15.8
2023-08-30T07:08:00.713Z,15.8
2023-08-30T07:09:00.402Z,15.8
2023-08-30T07:10:05.041Z,15.8
2023-08-30T07:11:01.815Z,15.8
2023-08-30T07:12:02.124Z,15.8
2023-08-30T07:13:01.721Z,15.8
2023-08-30T07:14:01.749Z,15.8
2023-08-30T07:15:08.834Z,15.8
2023-08-30T07:16:01.826Z,15.8
2023-08-30T07:17:01.461Z,15.8
2023-08-30T07:18:01.287Z,15.8
2023-08-30T07:19:04.084Z,15.8
2023-08-30T07:20:12.586Z,15.8
2023-08-30T07:21:01.117Z,15.8
2023-08-30T07:22:01.110Z,15.8
2023-08-30T07:23:01.124Z,15.8
2023-08-30T07:24:01.118Z,15.8
2023-08-30T07:25:15.424Z,15.8
2023-08-30T07:26:01.543Z,15.7
2023-08-30T07:27:02.239Z,15.7
2023-08-30T07:28:01.250Z,15.7
2023-08-30T07:29:03.940Z,15.7
2023-08-30T07:30:01.189Z,15.7
2023-08-30T07:31:01.111Z,15.6
2023-08-30T07:32:01.064Z,15.7
2023-08-30T07:33:01.798Z,15.7
2023-08-30T07:34:01.340Z,15.8
2023-08-30T07:35:03.101Z,15.8
2023-08-30T07:36:01.166Z,15.8
2023-08-30T07:37:01.709Z,15.8
2023-08-30T07:38:01.452Z,15.8
2023-08-30T07:39:01.417Z,15.8
2023-08-30T07:40:01.118Z,15.8
2023-08-30T07:41:01.117Z,15.8
2023-08-30T07:42:01.055Z,15.9
2023-08-30T07:43:01.058Z,15.9
2023-08-30T07:44:01.454Z,15.9
2023-08-30T07:45:01.452Z,16
2023-08-30T07:46:01.110Z,16
2023-08-30T07:47:00.753Z,16
2023-08-30T07:48:00.542Z,16
2023-08-30T07:49:00.248Z,16.1
2023-08-30T07:49:59.835Z,16.1
2023-08-30T07:51:01.769Z,16.1
2023-08-30T07:52:01.300Z,16.1
2023-08-30T07:53:02.537Z,16.1
2023-08-30T07:54:02.971Z,16.1
2023-08-30T07:55:01.154Z,16.2
2023-08-30T07:56:01.116Z,16.2
2023-08-30T07:57:01.019Z,16.3
2023-08-30T07:58:02.990Z,16.3
2023-08-30T07:59:01.091Z,16.3
2023-08-30T08:00:01.072Z,16.4
2023-08-30T08:01:01.205Z,16.4
2023-08-30T08:02:01.413Z,16.4
2023-08-30T08:03:01.098Z,16.4
2023-08-30T08:04:06.810Z,16.4
2023-08-30T08:05:01.070Z,16.4
2023-08-30T08:06:01.079Z,16.4
2023-08-30T08:07:02.359Z,16.5
2023-08-30T08:08:01.292Z,16.5
2023-08-30T08:09:01.111Z,16.5
2023-08-30T08:10:01.047Z,16.6
2023-08-30T08:11:01.522Z,16.6
2023-08-30T08:12:02.183Z,16.6
2023-08-30T08:13:01.265Z,16.6
2023-08-30T08:14:02.229Z,16.7
2023-08-30T08:15:02.582Z,16.7
2023-08-30T08:16:02.656Z,16.7
2023-08-30T08:17:01.576Z,16.8
2023-08-30T08:18:01.224Z,16.8
2023-08-30T08:19:02.139Z,16.9
2023-08-30T08:20:01.237Z,16.9
2023-08-30T08:21:02.408Z,16.9
2023-08-30T08:22:01.794Z,17
2023-08-30T08:23:02.174Z,17
2023-08-30T08:24:01.526Z,17
2023-08-30T08:25:01.152Z,17
2023-08-30T08:26:01.289Z,17
2023-08-30T08:27:01.122Z,17
2023-08-30T08:28:01.132Z,17
2023-08-30T08:29:01.328Z,17
2023-08-30T08:30:01.162Z,17
2023-08-30T08:31:02.092Z,17
2023-08-30T08:32:01.152Z,17.1
2023-08-30T08:33:01.522Z,17.1
2023-08-30T08:34:00.706Z,17.1
2023-08-30T08:35:00.715Z,17.1
2023-08-30T08:36:00.351Z,17.1
2023-08-30T08:36:59.937Z,17.1
2023-08-30T08:38:00.235Z,17.1
2023-08-30T08:38:59.858Z,17.1
2023-08-30T08:40:02.464Z,17.1
2023-08-30T08:41:01.114Z,17.1
2023-08-30T08:42:01.158Z,17.1
2023-08-30T08:43:00.808Z,17.2
2023-08-30T08:44:00.426Z,17.2
2023-08-30T08:45:00.159Z,17.2
2023-08-30T08:46:02.983Z,17.2
2023-08-30T08:47:01.232Z,17.2
2023-08-30T08:48:01.125Z,17.2
2023-08-30T08:49:01.052Z,17.2
2023-08-30T08:50:01.027Z,17.2
2023-08-30T08:51:05.652Z,17.3
2023-08-30T08:52:02.137Z,17.3
2023-08-30T08:53:01.478Z,17.3
2023-08-30T08:54:02.019Z,17.3
2023-08-30T08:55:02.113Z,17.3
2023-08-30T08:56:08.271Z,17.3
2023-08-30T08:57:01.115Z,17.3
2023-08-30T08:58:01.158Z,17.3
2023-08-30T08:59:01.115Z,17.4
2023-08-30T09:00:01.000Z,17.5
2023-08-30T09:01:18.422Z,17.5
2023-08-30T09:02:02.273Z,17.5
2023-08-30T09:03:01.110Z,17.5
2023-08-30T09:04:01.576Z,17.5
2023-08-30T09:05:01.071Z,17.5
2023-08-30T09:06:13.386Z,17.6
2023-08-30T09:07:01.747Z,17.6
2023-08-30T09:08:02.112Z,17.6
2023-08-30T09:09:01.753Z,17.6
2023-08-30T09:10:01.502Z,17.6
2023-08-30T09:11:15.311Z,17.6
2023-08-30T09:12:01.314Z,17.7
2023-08-30T09:13:01.019Z,17.8
2023-08-30T09:14:01.264Z,17.8
2023-08-30T09:15:00.699Z,17.8
2023-08-30T09:16:00.315Z,17.9
2023-08-30T09:17:00.114Z,17.9
2023-08-30T09:17:59.857Z,18
2023-08-30T09:20:01.056Z,18.1
2023-08-30T09:21:00.852Z,18.1
2023-08-30T09:22:00.636Z,18.2
2023-08-30T09:23:00.367Z,18.3
2023-08-30T09:24:00.687Z,18.3
2023-08-30T09:25:02.341Z,18.4
2023-08-30T09:26:01.509Z,18.4
2023-08-30T09:27:01.124Z,18.5
2023-08-30T09:28:01.140Z,18.5
2023-08-30T09:29:01.334Z,18.5
2023-08-30T09:30:01.670Z,18.4
2023-08-30T09:31:13.554Z,18.4
2023-08-30T09:32:04.258Z,18.4
2023-08-30T09:33:01.997Z,18.4
2023-08-30T09:34:01.142Z,18.5
2023-08-30T09:35:01.185Z,18.4
2023-08-30T09:36:01.070Z,18.4
2023-08-30T09:37:01.063Z,18.4
2023-08-30T09:38:01.089Z,18.4
2023-08-30T09:39:01.077Z,18.3
2023-08-30T09:40:01.346Z,18.3
2023-08-30T09:41:02.001Z,18.3
2023-08-30T09:42:01.474Z,18.3
2023-08-30T09:43:12.816Z,18.3
2023-08-30T09:44:13.059Z,18.3
2023-08-30T09:45:01.120Z,18.3
2023-08-30T09:46:01.070Z,18.4
2023-08-30T09:47:01.280Z,18.4
2023-08-30T09:48:01.260Z,18.4
2023-08-30T09:49:01.213Z,18.4
2023-08-30T09:50:01.244Z,18.4
2023-08-30T09:51:01.241Z,18.4
2023-08-30T09:52:01.114Z,18.4
2023-08-30T09:53:01.154Z,18.5
2023-08-30T09:54:06.116Z,18.5
2023-08-30T09:55:01.093Z,18.5
2023-08-30T09:56:01.288Z,18.5
2023-08-30T09:57:02.021Z,18.5
2023-08-30T09:58:01.617Z,18.6
2023-08-30T09:59:00.698Z,18.6
2023-08-30T10:00:00.503Z,18.6
2023-08-30T10:01:00.457Z,18.6
2023-08-30T10:02:00.151Z,18.5
2023-08-30T10:04:01.077Z,18.5
2023-08-30T10:05:01.096Z,18.5
2023-08-30T10:06:01.017Z,18.6
2023-08-30T10:07:01.430Z,18.5
2023-08-30T10:08:01.071Z,18.6
2023-08-30T10:09:01.066Z,18.6
2023-08-30T10:10:09.130Z,18.6
2023-08-30T10:11:01.082Z,18.6
2023-08-30T10:12:01.106Z,18.6
2023-08-30T10:13:09.719Z,18.7
2023-08-30T10:14:01.388Z,18.8
2023-08-30T10:15:01.293Z,18.8
2023-08-30T10:16:01.442Z,18.8
2023-08-30T10:17:01.480Z,18.8
2023-08-30T10:18:01.197Z,18.8
2023-08-30T10:19:05.662Z,18.8
2023-08-30T10:20:02.279Z,18.9
2023-08-30T10:21:00.721Z,18.9
2023-08-30T10:22:00.335Z,19
2023-08-30T10:22:59.917Z,19
2023-08-30T10:23:59.521Z,19
2023-08-30T10:25:10.880Z,19
2023-08-30T10:26:01.494Z,19.1
2023-08-30T10:27:01.995Z,19.1
2023-08-30T10:28:02.024Z,19.1
2023-08-30T10:29:00.690Z,19.1
2023-08-30T10:30:00.288Z,19.1
2023-08-30T10:31:00.044Z,19.2
2023-08-30T10:31:59.680Z,19.2
2023-08-30T10:33:01.386Z,19.2
2023-08-30T10:34:00.916Z,19.2
2023-08-30T10:35:00.532Z,19.2
2023-08-30T10:36:00.142Z,19.2
2023-08-30T10:37:00.460Z,19.2
2023-08-30T10:38:00.291Z,19.2
2023-08-30T10:38:59.907Z,19.3
2023-08-30T10:39:59.533Z,19.3
2023-08-30T10:41:01.459Z,19.3
2023-08-30T10:42:02.618Z,19.3
2023-08-30T10:43:01.856Z,19.3
2023-08-30T10:44:02.524Z,19.4
2023-08-30T10:46:01.154Z,19.5
2023-08-30T10:47:05.821Z,19.5
2023-08-30T10:48:01.586Z,19.5
2023-08-30T10:49:00.607Z,19.5
2023-08-30T10:50:00.216Z,19.5
2023-08-30T10:50:59.794Z,19.5
2023-08-30T10:52:09.457Z,19.6
2023-08-30T10:53:01.738Z,19.6
2023-08-30T10:54:01.297Z,19.6
2023-08-30T10:55:01.998Z,19.6
2023-08-30T10:56:01.995Z,19.6
2023-08-30T10:57:11.550Z,19.6
2023-08-30T10:58:00.907Z,19.6
2023-08-30T10:59:00.583Z,19.6
2023-08-30T11:00:00.358Z,19.5
2023-08-30T11:01:00.098Z,19.5
2023-08-30T11:02:14.118Z,19.5
2023-08-30T11:03:01.220Z,19.5
2023-08-30T11:04:13.391Z,19.6
2023-08-30T11:05:01.371Z,19.6
2023-08-30T11:06:01.350Z,19.6
2023-08-30T11:07:16.759Z,19.6
2023-08-30T11:08:02.409Z,19.6
2023-08-30T11:09:01.370Z,19.6
2023-08-30T11:10:02.385Z,19.7
2023-08-30T11:11:01.092Z,19.7
2023-08-30T11:12:01.072Z,19.7
2023-08-30T11:13:01.761Z,19.7
2023-08-30T11:14:01.133Z,19.7
2023-08-30T11:15:01.091Z,19.7
2023-08-30T11:16:01.190Z,19.7
2023-08-30T11:17:01.021Z,19.8
2023-08-30T11:18:00.736Z,19.8
2023-08-30T11:19:00.498Z,19.8
2023-08-30T11:20:00.337Z,19.8
2023-08-30T11:20:59.986Z,19.7
2023-08-30T11:21:59.695Z,19.7
2023-08-30T11:23:01.972Z,19.8
2023-08-30T11:24:01.362Z,19.8
2023-08-30T11:25:01.014Z,19.8
2023-08-30T11:26:01.032Z,19.8
2023-08-30T11:27:01.075Z,19.8
2023-08-30T11:28:01.083Z,19.9
2023-08-30T11:29:00.649Z,19.9
2023-08-30T11:30:00.491Z,20
2023-08-30T11:31:00.157Z,20
2023-08-30T11:31:59.765Z,20
2023-08-30T11:33:01.545Z,20
2023-08-30T11:34:01.210Z,20
2023-08-30T11:35:02.004Z,20
2023-08-30T11:36:01.140Z,20
2023-08-30T11:37:01.166Z,20
2023-08-30T11:38:01.255Z,20
2023-08-30T11:39:01.238Z,20
2023-08-30T11:40:01.453Z,20
2023-08-30T11:41:01.197Z,20
2023-08-30T11:42:09.465Z,20
2023-08-30T11:43:01.056Z,20
2023-08-30T11:44:00.685Z,20
2023-08-30T11:45:00.345Z,20
2023-08-30T11:46:00.002Z,20.1
2023-08-30T11:46:59.746Z,20.1
2023-08-30T11:48:01.571Z,20.1
2023-08-30T11:49:01.201Z,20
2023-08-30T11:50:01.125Z,20.1
2023-08-30T11:51:01.123Z,20
2023-08-30T11:52:01.128Z,20
2023-08-30T11:53:01.022Z,20
2023-08-30T11:54:00.748Z,20
2023-08-30T11:55:05.330Z,19.9
2023-08-30T11:56:01.355Z,19.9
2023-08-30T11:57:02.291Z,19.8
2023-08-30T11:58:01.667Z,19.8
2023-08-30T11:59:00.857Z,19.8
2023-08-30T12:00:00.417Z,19.8
2023-08-30T12:01:00.182Z,19.8
2023-08-30T12:01:59.957Z,19.8
2023-08-30T12:02:59.772Z,19.8
2023-08-30T12:04:01.485Z,19.8
2023-08-30T12:05:01.325Z,19.8
2023-08-30T12:06:01.984Z,19.9
2023-08-30T12:07:01.304Z,19.9
2023-08-30T12:08:01.018Z,19.9
2023-08-30T12:09:00.728Z,20
2023-08-30T12:10:00.442Z,20
2023-08-30T12:11:00.085Z,20
2023-08-30T12:11:59.617Z,20
2023-08-30T12:13:01.263Z,20
2023-08-30T12:14:00.869Z,20
2023-08-30T12:15:01.161Z,20.1
2023-08-30T12:16:01.056Z,20.1
2023-08-30T12:17:01.074Z,20.1
2023-08-30T12:18:01.133Z,20.1
2023-08-30T12:19:00.794Z,20.2
2023-08-30T12:20:00.488Z,20.2
2023-08-30T12:21:00.194Z,20.2
2023-08-30T12:21:59.900Z,20.2
2023-08-30T12:22:59.680Z,20.2
2023-08-30T12:24:01.310Z,20.1
2023-08-30T12:25:01.525Z,20.2
2023-08-30T12:26:01.086Z,20.2
2023-08-30T12:27:01.384Z,20.2
2023-08-30T12:28:02.327Z,20.2
2023-08-30T12:29:01.049Z,20.2
2023-08-30T12:30:01.405Z,20.3
2023-08-30T12:31:02.561Z,20.3
2023-08-30T12:32:01.086Z,20.3
2023-08-30T12:33:05.099Z,20.3
2023-08-30T12:34:01.491Z,20.3
2023-08-30T12:35:01.929Z,20.3
2023-08-30T12:36:02.191Z,20.3
2023-08-30T12:37:03.814Z,20.3
2023-08-30T12:38:08.582Z,20.3
2023-08-30T12:39:01.939Z,20.3
2023-08-30T12:40:02.126Z,20.4
2023-08-30T12:41:01.675Z,20.4
2023-08-30T12:42:00.682Z,20.5
2023-08-30T12:43:09.611Z,20.5
2023-08-30T12:44:01.464Z,20.5
2023-08-30T12:45:02.077Z,20.5
2023-08-30T12:46:00.913Z,20.5
2023-08-30T12:47:01.075Z,20.5
2023-08-30T12:48:12.943Z,20.5
2023-08-30T12:49:01.519Z,20.5
2023-08-30T12:50:01.433Z,20.5
2023-08-30T12:51:01.138Z,20.5
2023-08-30T12:52:01.105Z,20.5
2023-08-30T12:53:15.932Z,20.5
2023-08-30T12:54:01.501Z,20.5
2023-08-30T12:55:01.154Z,20.5
2023-08-30T12:56:01.033Z,20.5
2023-08-30T12:57:01.036Z,20.5
2023-08-30T12:58:01.052Z,20.5
2023-08-30T12:59:01.060Z,20.5
2023-08-30T13:00:01.123Z,20.5
2023-08-30T13:01:01.098Z,20.5
2023-08-30T13:02:00.497Z,20.5
2023-08-30T13:03:00.331Z,20.5
2023-08-30T13:04:00.060Z,20.5
2023-08-30T13:04:59.950Z,20.4
2023-08-30T13:05:59.529Z,20.5
2023-08-30T13:07:01.102Z,20.4
2023-08-30T13:08:01.062Z,20.4
2023-08-30T13:09:01.128Z,20.5
2023-08-30T13:10:01.126Z,20.5
2023-08-30T13:11:02.061Z,20.5
2023-08-30T13:12:01.860Z,20.5
2023-08-30T13:13:01.044Z,20.5
2023-08-30T13:14:01.442Z,20.5
2023-08-30T13:15:01.237Z,20.4
2023-08-30T13:16:01.270Z,20.4
2023-08-30T13:17:01.253Z,20.4
2023-08-30T13:18:01.184Z,20.4
2023-08-30T13:19:01.102Z,20.4
2023-08-30T13:20:01.114Z,20.4
2023-08-30T13:21:01.113Z,20.4
2023-08-30T13:22:00.685Z,20.4
2023-08-30T13:23:00.389Z,20.3
2023-08-30T13:23:59.998Z,20.3
2023-08-30T13:25:01.030Z,20.3